KXNA/XNA METAR and TAF weather

Enter ICAO airport designator
Station Type Date Time Source
KXNA METAR 2019/10/14 05:53 UTC NOAA

KXNA 140553Z AUTO 00000KT 10SM CLR 07/04 A3005 RMK AO2 SLP172 T00720044 10150 20067 402060017 50003


Station Type Date Time Source
KXNA Decoded METAR 2019/10/14 05:53 UTC NOAA

NORTHWEST ARKANSAS REGIONAL, AR, United States (KXNA) 36-17N 94-18W
Oct 14, 2019 - 01:53 AM EDT / 2019.10.14 0553 UTC
Wind: Calm:0
Visibility: 10 mile(s):0
Sky conditions: clear
Temperature: 45.0 F (7.2 C)
Dew Point: 39.9 F (4.4 C)
Relative Humidity: 82%
Pressure (altimeter): 30.05 in. Hg (1017 hPa)
Pressure tendency: 0.01 inches (0.3 hPa) higher than three hours ago
ob: KXNA 140553Z AUTO 00000KT 10SM CLR 07/04 A3005 RMK AO2 SLP172 T00720044 10150 20067 402060017 50003
cycle: 6

Station Type Date Time Source
KXNA TAF 2019/10/14 06:22 UTC NOAA

TAF KXNA 140520Z 1406/1506 VRB04KT P6SM SKC
FM141800 16010KT P6SM FEW250

Example: see airport list